Time;durP1;ratioP1;P1;durP2;ratioP2;P2;SDS_P1;SDS_P2;PMS_P1;PMS_P2;Temp;Humidity;BMP_temperature;BMP_pressure;BME280_temperature;BME280_humidity;BME280_pressure;Samples;Min_cycle;Max_cycle;Signal;HPM_P1;HPM_P2
2023/04/14 05:52:21;;;;;;;4.00;1.85;;;;;;;;;;10490707;28;20405;-83
2023/04/14 05:57:22;;;;;;;6.38;2.25;;;;;;;;;;10453606;28;20028;-83
2023/04/14 06:02:23;;;;;;;4.75;2.53;;;;;;;;;;10468059;23;20042;-81
2023/04/14 06:07:24;;;;;;;6.00;3.17;;;;;;;;;;10419520;28;20046;-82
2023/04/14 06:12:28;;;;;;;4.38;2.50;;;;;;;;;;10418535;28;20034;-82
2023/04/14 06:17:32;;;;;;;5.72;3.13;;;;;;;;;;10421493;28;20029;-82
2023/04/14 06:22:34;;;;;;;6.90;3.35;;;;;;;;;;10420177;28;20471;-82
2023/04/14 06:27:36;;;;;;;4.78;2.50;;;;;;;;;;10426327;28;20506;-82
2023/04/14 06:32:37;;;;;;;6.07;3.08;;;;;;;;;;10418978;28;20136;-82
2023/04/14 06:37:38;;;;;;;5.72;2.97;;;;;;;;;;10419326;28;20120;-82
2023/04/14 06:42:39;;;;;;;5.13;2.83;;;;;;;;;;10419068;28;20120;-82
2023/04/14 06:47:40;;;;;;;5.65;3.40;;;;;;;;;;10418403;28;20367;-82
2023/04/14 06:52:41;;;;;;;;;;;;;;;;;;10418464;28;20101;-82
2023/04/14 06:57:42;;;;;;;4.45;2.58;;;;;;;;;;10419540;28;20273;-80
2023/04/14 07:02:43;;;;;;;6.25;2.70;;;;;;;;;;10391565;28;20097;-81
2023/04/14 07:07:44;;;;;;;;;;;;;;;;;;10390012;28;20080;-82
2023/04/14 07:12:45;;;;;;;5.90;3.33;;;;;;;;;;10393513;28;19905;-81
2023/04/14 07:17:46;;;;;;;6.53;3.58;;;;;;;;;;10392632;28;20037;-83
2023/04/14 07:22:47;;;;;;;;;;;;;;;;;;10413870;28;20344;-82
2023/04/14 07:27:49;;;;;;;7.93;4.10;;;;;;;;;;10408005;28;19940;-83
2023/04/14 07:32:50;;;;;;;6.50;3.15;;;;;;;;;;10399478;28;20065;-82
2023/04/14 07:37:51;;;;;;;5.47;3.90;;;;;;;;;;10397079;28;20085;-82
2023/04/14 07:42:52;;;;;;;9.00;5.40;;;;;;;;;;10401558;28;20558;-82
2023/04/14 07:47:53;;;;;;;9.30;6.90;;;;;;;;;;10402307;28;20030;-82
2023/04/14 07:52:55;;;;;;;9.40;6.50;;;;;;;;;;10399427;28;20033;-82
2023/04/14 07:57:56;;;;;;;9.77;7.10;;;;;;;;;;10402821;28;20176;-82
2023/04/14 08:02:59;;;;;;;8.20;6.25;;;;;;;;;;10396020;28;20033;-82
2023/04/14 08:08:00;;;;;;;7.75;5.95;;;;;;;;;;10400835;28;20462;-82
2023/04/14 08:13:01;;;;;;;9.32;6.45;;;;;;;;;;10398708;28;20116;-82
2023/04/14 08:18:02;;;;;;;11.25;6.43;;;;;;;;;;10398487;28;20064;-82
2023/04/14 08:23:03;;;;;;;7.38;4.75;;;;;;;;;;10393587;28;20026;-84
2023/04/14 08:28:07;;;;;;;6.90;4.18;;;;;;;;;;10394514;28;20026;-83
2023/04/14 08:33:08;;;;;;;8.73;4.20;;;;;;;;;;10376582;28;20065;-82
2023/04/14 08:38:09;;;;;;;6.10;4.05;;;;;;;;;;10390338;28;20503;-81
2023/04/14 08:43:10;;;;;;;7.18;3.10;;;;;;;;;;10387719;28;20072;-82
2023/04/14 08:48:11;;;;;;;4.82;2.55;;;;;;;;;;10389388;28;20033;-81
2023/04/14 08:53:13;;;;;;;5.60;3.25;;;;;;;;;;10392204;28;20033;-82
2023/04/14 08:58:14;;;;;;;7.72;3.15;;;;;;;;;;10392786;28;20034;-81
2023/04/14 09:03:18;;;;;;;6.60;3.28;;;;;;;;;;10398146;28;20061;-81
2023/04/14 09:08:19;;;;;;;6.95;2.85;;;;;;;;;;10402202;28;20058;-82
2023/04/14 09:13:22;;;;;;;5.40;2.58;;;;;;;;;;10401969;28;20049;-81
2023/04/14 09:18:24;;;;;;;6.72;2.22;;;;;;;;;;10395336;28;20030;-82
2023/04/14 09:23:25;;;;;;;6.20;2.75;;;;;;;;;;10396210;28;20078;-82
2023/04/14 09:28:26;;;;;;;6.72;2.90;;;;;;;;;;10392739;28;20085;-81
2023/04/14 09:33:27;;;;;;;7.15;3.00;;;;;;;;;;10393850;28;20064;-82
2023/04/14 09:38:38;;;;;;;5.88;2.72;;;;;;;;;;10395207;28;20030;-81
2023/04/14 09:43:39;;;;;;;6.15;2.28;;;;;;;;;;10395056;28;20078;-81
2023/04/14 09:48:50;;;;;;;6.22;2.10;;;;;;;;;;10399794;28;20036;-83
2023/04/14 09:53:52;;;;;;;16.73;12.13;;;;;;;;;;10394975;28;20033;-81
2023/04/14 09:58:56;;;;;;;10.00;3.15;;;;;;;;;;10395144;28;20403;-82
2023/04/14 10:04:00;;;;;;;6.60;2.80;;;;;;;;;;10397212;28;20061;-80
2023/04/14 10:09:01;;;;;;;7.97;2.60;;;;;;;;;;10399969;28;20026;-80
2023/04/14 10:14:03;;;;;;;5.55;2.55;;;;;;;;;;10398341;28;20017;-82
2023/04/14 10:19:04;;;;;;;7.65;2.50;;;;;;;;;;10400967;28;20034;-83
2023/04/14 10:24:05;;;;;;;4.13;1.90;;;;;;;;;;10400894;28;20108;-82
2023/04/14 10:29:07;;;;;;;5.93;2.20;;;;;;;;;;10395705;28;20040;-85
2023/04/14 10:34:09;;;;;;;4.97;2.03;;;;;;;;;;10393918;28;20043;-83
2023/04/14 10:39:12;;;;;;;4.50;2.05;;;;;;;;;;10402668;28;20030;-83
2023/04/14 10:44:33;;;;;;;7.30;2.58;;;;;;;;;;10385256;28;20391;-83
2023/04/14 10:49:35;;;;;;;4.88;2.03;;;;;;;;;;10400872;28;20507;-83
2023/04/14 10:54:52;;;;;;;6.82;2.13;;;;;;;;;;10409262;28;20030;-84
2023/04/14 10:59:54;;;;;;;7.15;2.10;;;;;;;;;;10399076;28;20032;-83
2023/04/14 11:05:10;;;;;;;5.20;2.30;;;;;;;;;;10415300;28;20033;-83
2023/04/14 11:10:23;;;;;;;5.63;2.15;;;;;;;;;;10416656;28;20060;-82
2023/04/14 11:15:42;;;;;;;4.32;1.90;;;;;;;;;;10403920;28;20044;-82
2023/04/14 11:20:43;;;;;;;5.07;1.90;;;;;;;;;;10405432;28;20048;-82
2023/04/14 11:25:44;;;;;;;7.05;2.15;;;;;;;;;;10405174;28;20026;-82
2023/04/14 11:30:47;;;;;;;5.75;2.45;;;;;;;;;;10404245;28;20050;-81
2023/04/14 11:35:48;;;;;;;13.65;8.88;;;;;;;;;;10407310;28;20045;-81
2023/04/14 11:40:50;;;;;;;5.28;2.20;;;;;;;;;;10403487;28;20029;-83
2023/04/14 11:45:51;;;;;;;5.57;1.95;;;;;;;;;;10411091;28;20053;-83
2023/04/14 11:50:52;;;;;;;5.35;1.85;;;;;;;;;;10405486;28;20026;-83
2023/04/14 11:55:53;;;;;;;7.03;1.70;;;;;;;;;;10392230;28;20030;-83
2023/04/14 12:00:56;;;;;;;4.85;1.50;;;;;;;;;;10392107;28;20469;-83
2023/04/14 12:05:58;;;;;;;4.95;2.00;;;;;;;;;;10391525;28;20392;-83
2023/04/14 12:11:15;;;;;;;5.38;2.08;;;;;;;;;;10393070;28;20026;-83
2023/04/14 12:16:16;;;;;;;7.57;3.53;;;;;;;;;;10392264;28;20033;-83
2023/04/14 12:21:18;;;;;;;4.28;1.55;;;;;;;;;;10390378;28;20365;-83
2023/04/14 12:26:19;;;;;;;8.57;3.33;;;;;;;;;;10390890;28;20368;-83
2023/04/14 12:31:27;;;;;;;4.43;1.70;;;;;;;;;;10392293;28;20084;-82
2023/04/14 12:36:30;;;;;;;7.05;3.20;;;;;;;;;;10395862;28;20052;-82
2023/04/14 12:41:49;;;;;;;4.70;1.77;;;;;;;;;;10392688;28;20034;-82
2023/04/14 12:46:51;;;;;;;4.50;1.50;;;;;;;;;;10394690;28;20030;-82
2023/04/14 12:51:52;;;;;;;3.80;1.88;;;;;;;;;;10393994;28;20372;-84
2023/04/14 12:56:53;;;;;;;4.13;1.65;;;;;;;;;;10396640;28;20068;-83
2023/04/14 13:01:54;;;;;;;3.15;1.42;;;;;;;;;;10397271;28;20057;-83
2023/04/14 13:06:55;;;;;;;4.00;1.60;;;;;;;;;;10396908;28;20025;-84
2023/04/14 13:11:57;;;;;;;3.20;1.50;;;;;;;;;;10391739;28;20041;-83
2023/04/14 13:16:58;;;;;;;4.40;1.50;;;;;;;;;;10388409;28;20030;-84
2023/04/14 13:21:59;;;;;;;6.22;1.70;;;;;;;;;;10385223;28;20093;-82
2023/04/14 13:27:00;;;;;;;4.28;1.67;;;;;;;;;;10384525;28;20180;-84
2023/04/14 13:32:01;;;;;;;3.35;1.42;;;;;;;;;;10387508;28;20040;-84
2023/04/14 13:37:07;;;;;;;5.68;2.35;;;;;;;;;;10390358;28;20033;-83
2023/04/14 13:42:09;;;;;;;5.35;1.80;;;;;;;;;;10389581;28;20411;-83
2023/04/14 13:47:10;;;;;;;7.93;1.95;;;;;;;;;;10390645;28;20026;-83
2023/04/14 13:52:31;;;;;;;3.70;1.50;;;;;;;;;;10385826;28;20532;-82
2023/04/14 13:57:53;;;;;;;4.90;1.75;;;;;;;;;;10407245;28;20084;-83
2023/04/14 14:02:54;;;;;;;3.65;1.83;;;;;;;;;;10394047;28;20061;-83
2023/04/14 14:07:55;;;;;;;5.20;1.30;;;;;;;;;;10390347;28;20046;-83
2023/04/14 14:12:57;;;;;;;3.13;1.20;;;;;;;;;;10390979;28;20026;-83
2023/04/14 14:17:58;;;;;;;4.82;1.35;;;;;;;;;;10392898;28;20026;-83
2023/04/14 14:22:59;;;;;;;3.45;1.40;;;;;;;;;;10388915;28;20464;-83
2023/04/14 14:28:00;;;;;;;6.05;3.08;;;;;;;;;;10387781;28;20068;-83
2023/04/14 14:33:01;;;;;;;4.35;2.28;;;;;;;;;;10389066;28;20030;-82
2023/04/14 14:38:02;;;;;;;5.45;1.55;;;;;;;;;;10387192;28;20056;-82
2023/04/14 14:43:04;;;;;;;3.78;1.60;;;;;;;;;;10393978;28;20098;-82
2023/04/14 14:48:05;;;;;;;5.20;1.77;;;;;;;;;;10404884;28;20025;-82
2023/04/14 14:53:07;;;;;;;2.60;1.40;;;;;;;;;;10391933;28;20029;-84
2023/04/14 14:58:10;;;;;;;3.25;1.42;;;;;;;;;;10398948;28;20084;-83
2023/04/14 15:03:13;;;;;;;4.40;1.70;;;;;;;;;;10397657;28;20030;-84
2023/04/14 15:08:14;;;;;;;5.10;1.88;;;;;;;;;;10391849;28;20038;-82
2023/04/14 15:13:18;;;;;;;3.03;1.20;;;;;;;;;;10385764;28;20565;-83
2023/04/14 15:18:21;;;;;;;4.00;1.60;;;;;;;;;;10385272;28;20056;-83
2023/04/14 15:23:22;;;;;;;6.78;1.92;;;;;;;;;;10385814;28;20045;-83
2023/04/14 15:28:23;;;;;;;5.00;1.55;;;;;;;;;;10386746;28;20391;-83
2023/04/14 15:33:24;;;;;;;6.65;2.15;;;;;;;;;;10387998;28;20033;-84
2023/04/14 15:38:31;;;;;;;3.70;1.88;;;;;;;;;;10389086;28;20084;-83
2023/04/14 15:43:32;;;;;;;3.92;1.50;;;;;;;;;;10387355;28;20033;-83
2023/04/14 15:48:33;;;;;;;5.40;1.80;;;;;;;;;;10388979;28;20116;-83
2023/04/14 15:53:34;;;;;;;4.13;1.33;;;;;;;;;;10386501;28;20128;-83
2023/04/14 15:58:35;;;;;;;4.68;1.60;;;;;;;;;;10388859;28;20062;-84
2023/04/14 16:03:37;;;;;;;7.05;4.88;;;;;;;;;;10390671;28;20476;-83
2023/04/14 16:08:38;;;;;;;4.60;1.98;;;;;;;;;;10391577;28;20132;-84
2023/04/14 16:13:39;;;;;;;6.35;1.92;;;;;;;;;;10388451;28;20350;-84
2023/04/14 16:18:41;;;;;;;3.63;1.63;;;;;;;;;;10386787;28;20116;-84
2023/04/14 16:23:42;;;;;;;3.58;1.60;;;;;;;;;;10371029;28;20072;-81
2023/04/14 16:28:47;;;;;;;5.20;1.60;;;;;;;;;;10384898;28;20037;-80
2023/04/14 16:33:49;;;;;;;8.95;5.40;;;;;;;;;;10387048;28;20455;-84
2023/04/14 16:38:51;;;;;;;3.63;2.10;;;;;;;;;;10391356;28;20120;-81
2023/04/14 16:43:59;;;;;;;4.38;2.00;;;;;;;;;;10391904;28;20026;-81
2023/04/14 16:49:00;;;;;;;6.15;2.13;;;;;;;;;;10391751;28;20030;-81
2023/04/14 16:54:01;;;;;;;4.40;2.10;;;;;;;;;;10390378;28;20092;-81
2023/04/14 16:59:02;;;;;;;5.97;2.17;;;;;;;;;;10390274;28;20061;-81
2023/04/14 17:04:03;;;;;;;8.20;2.40;;;;;;;;;;10390758;28;20030;-82
2023/04/14 17:09:05;;;;;;;4.90;2.20;;;;;;;;;;10391852;28;20034;-81
2023/04/14 17:14:06;;;;;;;4.28;2.10;;;;;;;;;;10387620;28;20041;-81
2023/04/14 17:19:07;;;;;;;5.00;1.92;;;;;;;;;;10390920;28;20033;-84
2023/04/14 17:24:09;;;;;;;5.93;1.90;;;;;;;;;;10390237;28;20092;-84
2023/04/14 17:29:10;;;;;;;4.75;2.20;;;;;;;;;;10389922;28;20025;-84
2023/04/14 17:34:11;;;;;;;4.68;2.13;;;;;;;;;;10388200;28;20121;-81
2023/04/14 17:39:12;;;;;;;3.55;1.95;;;;;;;;;;10387647;28;20167;-81
2023/04/14 17:44:13;;;;;;;5.20;2.60;;;;;;;;;;10388543;28;20476;-81
2023/04/14 17:49:15;;;;;;;8.38;3.63;;;;;;;;;;10388995;28;20045;-81
2023/04/14 17:54:16;;;;;;;6.35;3.70;;;;;;;;;;10386669;28;20030;-81
2023/04/14 17:59:17;;;;;;;7.13;3.03;;;;;;;;;;10386115;28;20463;-81
2023/04/14 18:04:19;;;;;;;6.55;3.30;;;;;;;;;;10436332;23;20049;-86
2023/04/14 18:09:22;;;;;;;5.25;3.60;;;;;;;;;;10382654;28;20061;-86
2023/04/14 18:14:25;;;;;;;6.28;3.33;;;;;;;;;;10384460;28;20025;-86
2023/04/14 18:19:27;;;;;;;4.93;2.80;;;;;;;;;;10368064;28;20411;-86
2023/04/14 18:24:28;;;;;;;6.05;3.30;;;;;;;;;;10385899;28;20026;-86
2023/04/14 18:29:31;;;;;;;4.65;2.75;;;;;;;;;;10386643;28;20105;-86
2023/04/14 18:34:33;;;;;;;4.13;2.70;;;;;;;;;;10387154;28;20079;-85
2023/04/14 18:39:35;;;;;;;3.58;2.20;;;;;;;;;;10386872;28;20022;-85
2023/04/14 18:44:36;;;;;;;3.95;2.33;;;;;;;;;;10387666;28;20030;-86
2023/04/14 18:49:38;;;;;;;6.88;2.97;;;;;;;;;;10387303;28;20500;-86
2023/04/14 18:54:39;;;;;;;6.13;3.72;;;;;;;;;;10388403;28;20026;-86
2023/04/14 18:59:40;;;;;;;4.95;2.97;;;;;;;;;;10397919;28;20053;-86
2023/04/14 19:04:41;;;;;;;4.72;2.95;;;;;;;;;;10413419;28;20037;-85
2023/04/14 19:09:46;;;;;;;3.83;2.30;;;;;;;;;;10421595;28;20038;-86
2023/04/14 19:15:03;;;;;;;2.70;1.60;;;;;;;;;;10398169;28;20113;-86
